sensor_id;sensor_type;location;lat;lon;timestamp;P1;durP1;ratioP1;P2;durP2;ratioP2
55009;SDS011;40903;51.638;7.528;2023-07-20T00:02:02;4.40;;;3.67;;
55009;SDS011;40903;51.638;7.528;2023-07-20T00:04:28;4.50;;;3.23;;
55009;SDS011;40903;51.638;7.528;2023-07-20T00:06:53;4.30;;;3.40;;
55009;SDS011;40903;51.638;7.528;2023-07-20T00:09:21;3.57;;;3.23;;
55009;SDS011;40903;51.638;7.528;2023-07-20T00:11:50;4.07;;;3.33;;
55009;SDS011;40903;51.638;7.528;2023-07-20T00:14:18;5.30;;;3.80;;
55009;SDS011;40903;51.638;7.528;2023-07-20T00:16:47;4.27;;;3.47;;
55009;SDS011;40903;51.638;7.528;2023-07-20T00:19:20;3.90;;;3.57;;
55009;SDS011;40903;51.638;7.528;2023-07-20T00:21:46;3.97;;;3.50;;
55009;SDS011;40903;51.638;7.528;2023-07-20T00:24:11;3.73;;;3.43;;
55009;SDS011;40903;51.638;7.528;2023-07-20T00:26:36;4.20;;;3.27;;
55009;SDS011;40903;51.638;7.528;2023-07-20T00:29:02;4.37;;;3.60;;
55009;SDS011;40903;51.638;7.528;2023-07-20T00:31:28;4.63;;;4.10;;
55009;SDS011;40903;51.638;7.528;2023-07-20T00:33:54;4.20;;;3.80;;
55009;SDS011;40903;51.638;7.528;2023-07-20T00:36:19;4.07;;;3.30;;
55009;SDS011;40903;51.638;7.528;2023-07-20T00:38:45;4.27;;;3.83;;
55009;SDS011;40903;51.638;7.528;2023-07-20T00:41:10;5.63;;;4.07;;
55009;SDS011;40903;51.638;7.528;2023-07-20T00:43:36;3.73;;;3.37;;
55009;SDS011;40903;51.638;7.528;2023-07-20T00:46:01;3.47;;;3.17;;
55009;SDS011;40903;51.638;7.528;2023-07-20T00:48:28;4.47;;;3.80;;
55009;SDS011;40903;51.638;7.528;2023-07-20T00:50:54;4.30;;;3.90;;
55009;SDS011;40903;51.638;7.528;2023-07-20T00:53:20;4.47;;;3.60;;
55009;SDS011;40903;51.638;7.528;2023-07-20T00:55:46;4.10;;;3.23;;
55009;SDS011;40903;51.638;7.528;2023-07-20T00:58:12;4.77;;;4.30;;
55009;SDS011;40903;51.638;7.528;2023-07-20T01:00:37;4.70;;;4.30;;
55009;SDS011;40903;51.638;7.528;2023-07-20T01:03:03;6.53;;;4.43;;
55009;SDS011;40903;51.638;7.528;2023-07-20T01:05:35;6.07;;;4.57;;
55009;SDS011;40903;51.638;7.528;2023-07-20T01:08:17;5.57;;;4.90;;
55009;SDS011;40903;51.638;7.528;2023-07-20T01:10:51;4.63;;;4.23;;
55009;SDS011;40903;51.638;7.528;2023-07-20T01:13:35;6.70;;;4.60;;
55009;SDS011;40903;51.638;7.528;2023-07-20T01:16:02;4.60;;;4.20;;
55009;SDS011;40903;51.638;7.528;2023-07-20T01:18:28;4.50;;;3.90;;
55009;SDS011;40903;51.638;7.528;2023-07-20T01:20:54;4.07;;;3.77;;
55009;SDS011;40903;51.638;7.528;2023-07-20T01:23:35;7.47;;;5.03;;
55009;SDS011;40903;51.638;7.528;2023-07-20T01:29:17;5.30;;;4.30;;
55009;SDS011;40903;51.638;7.528;2023-07-20T01:32:05;5.47;;;4.97;;
55009;SDS011;40903;51.638;7.528;2023-07-20T01:34:33;5.30;;;4.80;;
55009;SDS011;40903;51.638;7.528;2023-07-20T01:37:00;5.20;;;4.60;;
55009;SDS011;40903;51.638;7.528;2023-07-20T01:39:27;5.93;;;5.20;;
55009;SDS011;40903;51.638;7.528;2023-07-20T01:41:53;5.40;;;4.90;;
55009;SDS011;40903;51.638;7.528;2023-07-20T01:44:22;5.23;;;4.70;;
55009;SDS011;40903;51.638;7.528;2023-07-20T01:46:48;5.40;;;4.30;;
55009;SDS011;40903;51.638;7.528;2023-07-20T01:49:13;5.13;;;4.00;;
55009;SDS011;40903;51.638;7.528;2023-07-20T01:51:39;7.87;;;5.67;;
55009;SDS011;40903;51.638;7.528;2023-07-20T01:54:05;6.40;;;5.07;;
55009;SDS011;40903;51.638;7.528;2023-07-20T01:56:30;5.53;;;5.03;;
55009;SDS011;40903;51.638;7.528;2023-07-20T01:58:56;5.97;;;4.57;;
55009;SDS011;40903;51.638;7.528;2023-07-20T02:01:21;4.80;;;4.30;;
55009;SDS011;40903;51.638;7.528;2023-07-20T02:03:47;5.47;;;4.37;;
55009;SDS011;40903;51.638;7.528;2023-07-20T02:06:12;5.10;;;4.60;;
55009;SDS011;40903;51.638;7.528;2023-07-20T02:08:37;5.80;;;4.40;;
55009;SDS011;40903;51.638;7.528;2023-07-20T02:11:03;5.67;;;5.13;;
55009;SDS011;40903;51.638;7.528;2023-07-20T02:13:30;6.07;;;5.37;;
55009;SDS011;40903;51.638;7.528;2023-07-20T02:15:55;6.33;;;4.87;;
55009;SDS011;40903;51.638;7.528;2023-07-20T02:18:21;6.03;;;5.03;;
55009;SDS011;40903;51.638;7.528;2023-07-20T02:20:46;5.33;;;4.87;;
55009;SDS011;40903;51.638;7.528;2023-07-20T02:23:14;5.80;;;4.63;;
55009;SDS011;40903;51.638;7.528;2023-07-20T02:25:40;5.43;;;4.90;;
55009;SDS011;40903;51.638;7.528;2023-07-20T02:28:07;6.03;;;5.13;;
55009;SDS011;40903;51.638;7.528;2023-07-20T02:30:34;5.70;;;5.13;;
55009;SDS011;40903;51.638;7.528;2023-07-20T02:32:59;7.07;;;6.07;;
55009;SDS011;40903;51.638;7.528;2023-07-20T02:35:25;7.93;;;5.87;;
55009;SDS011;40903;51.638;7.528;2023-07-20T02:37:50;7.43;;;5.73;;
55009;SDS011;40903;51.638;7.528;2023-07-20T02:40:16;8.43;;;6.23;;
55009;SDS011;40903;51.638;7.528;2023-07-20T02:42:42;7.77;;;6.10;;
55009;SDS011;40903;51.638;7.528;2023-07-20T02:45:08;8.03;;;6.33;;
55009;SDS011;40903;51.638;7.528;2023-07-20T02:47:33;6.83;;;6.00;;
55009;SDS011;40903;51.638;7.528;2023-07-20T02:49:59;7.30;;;6.60;;
55009;SDS011;40903;51.638;7.528;2023-07-20T02:52:24;7.90;;;6.03;;
55009;SDS011;40903;51.638;7.528;2023-07-20T02:54:50;8.70;;;6.60;;
55009;SDS011;40903;51.638;7.528;2023-07-20T02:57:15;6.77;;;6.00;;
55009;SDS011;40903;51.638;7.528;2023-07-20T02:59:41;9.00;;;6.73;;
55009;SDS011;40903;51.638;7.528;2023-07-20T03:02:06;7.10;;;6.33;;
55009;SDS011;40903;51.638;7.528;2023-07-20T03:04:34;6.60;;;5.87;;
55009;SDS011;40903;51.638;7.528;2023-07-20T03:07:02;6.57;;;5.93;;
55009;SDS011;40903;51.638;7.528;2023-07-20T03:09:29;6.83;;;6.13;;
55009;SDS011;40903;51.638;7.528;2023-07-20T03:11:55;9.00;;;6.33;;
55009;SDS011;40903;51.638;7.528;2023-07-20T03:14:20;6.90;;;6.20;;
55009;SDS011;40903;51.638;7.528;2023-07-20T03:16:46;7.10;;;6.40;;
55009;SDS011;40903;51.638;7.528;2023-07-20T03:19:11;6.53;;;5.93;;
55009;SDS011;40903;51.638;7.528;2023-07-20T03:21:37;7.80;;;6.93;;
55009;SDS011;40903;51.638;7.528;2023-07-20T03:24:06;8.23;;;7.40;;
55009;SDS011;40903;51.638;7.528;2023-07-20T03:26:32;7.30;;;6.27;;
55009;SDS011;40903;51.638;7.528;2023-07-20T03:28:57;10.07;;;7.20;;
55009;SDS011;40903;51.638;7.528;2023-07-20T03:31:23;8.97;;;7.60;;
55009;SDS011;40903;51.638;7.528;2023-07-20T03:33:48;11.07;;;7.97;;
55009;SDS011;40903;51.638;7.528;2023-07-20T03:36:14;9.53;;;8.23;;
55009;SDS011;40903;51.638;7.528;2023-07-20T03:38:39;8.33;;;7.53;;
55009;SDS011;40903;51.638;7.528;2023-07-20T03:41:05;8.37;;;7.50;;
55009;SDS011;40903;51.638;7.528;2023-07-20T03:43:30;12.40;;;8.43;;
55009;SDS011;40903;51.638;7.528;2023-07-20T03:45:55;8.60;;;7.80;;
55009;SDS011;40903;51.638;7.528;2023-07-20T03:48:24;8.70;;;7.63;;
55009;SDS011;40903;51.638;7.528;2023-07-20T03:50:51;8.20;;;7.20;;
55009;SDS011;40903;51.638;7.528;2023-07-20T03:53:18;7.73;;;6.97;;
55009;SDS011;40903;51.638;7.528;2023-07-20T03:55:49;8.73;;;7.83;;
55009;SDS011;40903;51.638;7.528;2023-07-20T03:58:16;8.90;;;7.97;;
55009;SDS011;40903;51.638;7.528;2023-07-20T04:00:48;8.07;;;7.27;;
55009;SDS011;40903;51.638;7.528;2023-07-20T04:03:18;9.57;;;7.40;;
55009;SDS011;40903;51.638;7.528;2023-07-20T04:05:44;8.20;;;7.40;;
55009;SDS011;40903;51.638;7.528;2023-07-20T04:08:10;8.60;;;7.80;;
55009;SDS011;40903;51.638;7.528;2023-07-20T04:10:36;11.57;;;10.03;;
55009;SDS011;40903;51.638;7.528;2023-07-20T04:13:02;9.57;;;8.57;;
55009;SDS011;40903;51.638;7.528;2023-07-20T04:15:28;9.80;;;8.80;;
55009;SDS011;40903;51.638;7.528;2023-07-20T04:17:54;10.63;;;9.53;;
55009;SDS011;40903;51.638;7.528;2023-07-20T04:20:20;9.93;;;8.93;;
55009;SDS011;40903;51.638;7.528;2023-07-20T04:22:46;11.47;;;9.33;;
55009;SDS011;40903;51.638;7.528;2023-07-20T04:25:11;11.13;;;9.53;;
55009;SDS011;40903;51.638;7.528;2023-07-20T04:27:36;10.03;;;9.03;;
55009;SDS011;40903;51.638;7.528;2023-07-20T04:30:02;11.10;;;9.17;;
55009;SDS011;40903;51.638;7.528;2023-07-20T04:32:28;12.00;;;10.77;;
55009;SDS011;40903;51.638;7.528;2023-07-20T04:34:54;12.23;;;11.03;;
55009;SDS011;40903;51.638;7.528;2023-07-20T04:37:19;15.27;;;10.97;;
55009;SDS011;40903;51.638;7.528;2023-07-20T04:39:45;11.53;;;10.40;;
55009;SDS011;40903;51.638;7.528;2023-07-20T04:42:11;13.67;;;10.13;;
55009;SDS011;40903;51.638;7.528;2023-07-20T04:44:36;11.03;;;9.87;;
55009;SDS011;40903;51.638;7.528;2023-07-20T04:47:02;11.67;;;10.57;;
55009;SDS011;40903;51.638;7.528;2023-07-20T04:49:28;12.90;;;10.23;;
55009;SDS011;40903;51.638;7.528;2023-07-20T04:51:53;10.67;;;9.57;;
55009;SDS011;40903;51.638;7.528;2023-07-20T04:54:19;10.17;;;9.20;;
55009;SDS011;40903;51.638;7.528;2023-07-20T04:56:45;10.03;;;9.13;;
55009;SDS011;40903;51.638;7.528;2023-07-20T04:59:10;9.77;;;8.87;;
55009;SDS011;40903;51.638;7.528;2023-07-20T05:01:36;9.60;;;8.63;;
55009;SDS011;40903;51.638;7.528;2023-07-20T05:04:02;8.43;;;7.50;;
55009;SDS011;40903;51.638;7.528;2023-07-20T05:06:27;8.17;;;7.37;;
55009;SDS011;40903;51.638;7.528;2023-07-20T05:08:53;10.33;;;8.10;;
55009;SDS011;40903;51.638;7.528;2023-07-20T05:11:19;8.20;;;7.50;;
55009;SDS011;40903;51.638;7.528;2023-07-20T05:13:44;8.60;;;7.80;;
55009;SDS011;40903;51.638;7.528;2023-07-20T05:16:10;6.73;;;6.13;;
55009;SDS011;40903;51.638;7.528;2023-07-20T05:18:35;7.30;;;6.60;;
55009;SDS011;40903;51.638;7.528;2023-07-20T05:21:00;7.47;;;6.77;;
55009;SDS011;40903;51.638;7.528;2023-07-20T05:23:26;8.20;;;7.40;;
55009;SDS011;40903;51.638;7.528;2023-07-20T05:25:55;7.90;;;7.20;;
55009;SDS011;40903;51.638;7.528;2023-07-20T05:28:23;7.33;;;6.63;;
55009;SDS011;40903;51.638;7.528;2023-07-20T05:30:50;7.63;;;7.03;;
55009;SDS011;40903;51.638;7.528;2023-07-20T05:33:19;7.80;;;7.10;;
55009;SDS011;40903;51.638;7.528;2023-07-20T05:35:45;8.40;;;7.60;;
55009;SDS011;40903;51.638;7.528;2023-07-20T05:38:11;7.40;;;6.80;;
55009;SDS011;40903;51.638;7.528;2023-07-20T05:40:37;7.77;;;7.03;;
55009;SDS011;40903;51.638;7.528;2023-07-20T05:43:03;7.37;;;6.73;;
55009;SDS011;40903;51.638;7.528;2023-07-20T05:45:29;6.90;;;6.30;;
55009;SDS011;40903;51.638;7.528;2023-07-20T05:47:54;7.67;;;6.97;;
55009;SDS011;40903;51.638;7.528;2023-07-20T05:50:19;6.97;;;6.33;;
55009;SDS011;40903;51.638;7.528;2023-07-20T05:52:45;6.87;;;6.17;;
55009;SDS011;40903;51.638;7.528;2023-07-20T05:55:11;6.80;;;6.20;;
55009;SDS011;40903;51.638;7.528;2023-07-20T05:57:36;7.43;;;6.83;;
55009;SDS011;40903;51.638;7.528;2023-07-20T06:00:07;6.60;;;6.00;;
55009;SDS011;40903;51.638;7.528;2023-07-20T06:02:33;6.07;;;5.57;;
55009;SDS011;40903;51.638;7.528;2023-07-20T06:04:58;6.80;;;6.10;;
55009;SDS011;40903;51.638;7.528;2023-07-20T06:07:24;6.70;;;6.10;;
55009;SDS011;40903;51.638;7.528;2023-07-20T06:09:49;6.13;;;5.60;;
55009;SDS011;40903;51.638;7.528;2023-07-20T06:12:15;5.27;;;4.87;;
55009;SDS011;40903;51.638;7.528;2023-07-20T06:14:40;5.80;;;5.17;;
55009;SDS011;40903;51.638;7.528;2023-07-20T06:17:05;5.93;;;5.33;;
55009;SDS011;40903;51.638;7.528;2023-07-20T06:19:31;5.43;;;4.93;;
55009;SDS011;40903;51.638;7.528;2023-07-20T06:21:56;5.77;;;5.13;;
55009;SDS011;40903;51.638;7.528;2023-07-20T06:24:22;5.50;;;5.00;;
55009;SDS011;40903;51.638;7.528;2023-07-20T06:26:47;6.37;;;5.43;;
55009;SDS011;40903;51.638;7.528;2023-07-20T06:29:13;5.23;;;4.83;;
55009;SDS011;40903;51.638;7.528;2023-07-20T06:31:38;5.50;;;5.10;;
55009;SDS011;40903;51.638;7.528;2023-07-20T06:34:04;5.70;;;5.10;;
55009;SDS011;40903;51.638;7.528;2023-07-20T06:36:29;7.17;;;5.10;;
55009;SDS011;40903;51.638;7.528;2023-07-20T06:38:58;5.07;;;4.57;;
55009;SDS011;40903;51.638;7.528;2023-07-20T06:41:23;6.30;;;4.97;;
55009;SDS011;40903;51.638;7.528;2023-07-20T06:43:49;5.43;;;4.93;;
55009;SDS011;40903;51.638;7.528;2023-07-20T06:46:15;5.40;;;3.87;;
55009;SDS011;40903;51.638;7.528;2023-07-20T06:48:40;5.37;;;4.00;;
55009;SDS011;40903;51.638;7.528;2023-07-20T06:51:05;3.53;;;3.20;;
55009;SDS011;40903;51.638;7.528;2023-07-20T06:53:31;2.93;;;2.70;;
55009;SDS011;40903;51.638;7.528;2023-07-20T06:55:56;2.90;;;2.70;;
55009;SDS011;40903;51.638;7.528;2023-07-20T06:58:23;2.70;;;2.47;;
55009;SDS011;40903;51.638;7.528;2023-07-20T07:00:48;3.50;;;2.70;;
55009;SDS011;40903;51.638;7.528;2023-07-20T07:03:14;3.07;;;2.47;;
55009;SDS011;40903;51.638;7.528;2023-07-20T07:05:39;3.63;;;2.73;;
55009;SDS011;40903;51.638;7.528;2023-07-20T07:08:05;2.57;;;2.27;;
55009;SDS011;40903;51.638;7.528;2023-07-20T07:10:30;2.87;;;2.27;;
55009;SDS011;40903;51.638;7.528;2023-07-20T07:12:56;2.77;;;2.20;;
55009;SDS011;40903;51.638;7.528;2023-07-20T07:15:21;2.60;;;2.40;;
55009;SDS011;40903;51.638;7.528;2023-07-20T07:17:47;2.30;;;2.10;;
55009;SDS011;40903;51.638;7.528;2023-07-20T07:20:13;2.30;;;2.10;;
55009;SDS011;40903;51.638;7.528;2023-07-20T07:22:38;5.43;;;2.20;;
55009;SDS011;40903;51.638;7.528;2023-07-20T07:25:03;2.40;;;1.73;;
55009;SDS011;40903;51.638;7.528;2023-07-20T07:27:29;2.53;;;1.70;;
55009;SDS011;40903;51.638;7.528;2023-07-20T07:29:54;2.50;;;1.60;;
55009;SDS011;40903;51.638;7.528;2023-07-20T07:32:20;1.73;;;1.60;;
55009;SDS011;40903;51.638;7.528;2023-07-20T07:34:46;2.60;;;1.83;;
55009;SDS011;40903;51.638;7.528;2023-07-20T07:37:12;3.50;;;1.90;;
55009;SDS011;40903;51.638;7.528;2023-07-20T07:39:38;3.23;;;1.90;;
55009;SDS011;40903;51.638;7.528;2023-07-20T07:42:04;4.00;;;1.67;;
55009;SDS011;40903;51.638;7.528;2023-07-20T07:44:30;2.13;;;1.60;;
55009;SDS011;40903;51.638;7.528;2023-07-20T07:46:56;3.00;;;1.90;;
55009;SDS011;40903;51.638;7.528;2023-07-20T07:49:21;2.47;;;2.00;;
55009;SDS011;40903;51.638;7.528;2023-07-20T07:51:47;1.83;;;1.60;;
55009;SDS011;40903;51.638;7.528;2023-07-20T07:54:16;4.80;;;3.60;;
55009;SDS011;40903;51.638;7.528;2023-07-20T07:56:41;2.57;;;2.13;;
55009;SDS011;40903;51.638;7.528;2023-07-20T07:59:07;2.10;;;1.97;;
55009;SDS011;40903;51.638;7.528;2023-07-20T08:01:33;2.90;;;1.80;;
55009;SDS011;40903;51.638;7.528;2023-07-20T08:03:58;2.40;;;2.20;;
55009;SDS011;40903;51.638;7.528;2023-07-20T08:06:24;1.93;;;1.67;;
55009;SDS011;40903;51.638;7.528;2023-07-20T08:08:50;2.07;;;1.87;;
55009;SDS011;40903;51.638;7.528;2023-07-20T08:11:16;1.70;;;1.53;;
55009;SDS011;40903;51.638;7.528;2023-07-20T08:13:43;1.57;;;1.37;;
55009;SDS011;40903;51.638;7.528;2023-07-20T08:16:08;2.20;;;1.77;;
55009;SDS011;40903;51.638;7.528;2023-07-20T08:18:36;2.53;;;1.60;;
55009;SDS011;40903;51.638;7.528;2023-07-20T08:21:01;3.33;;;2.17;;
55009;SDS011;40903;51.638;7.528;2023-07-20T08:23:28;2.53;;;1.50;;
55009;SDS011;40903;51.638;7.528;2023-07-20T08:25:54;1.67;;;1.50;;
55009;SDS011;40903;51.638;7.528;2023-07-20T08:28:20;3.87;;;1.53;;
55009;SDS011;40903;51.638;7.528;2023-07-20T08:30:46;1.63;;;1.10;;
55009;SDS011;40903;51.638;7.528;2023-07-20T08:33:15;1.67;;;0.97;;
55009;SDS011;40903;51.638;7.528;2023-07-20T08:35:45;0.80;;;0.80;;
55009;SDS011;40903;51.638;7.528;2023-07-20T08:38:11;2.67;;;0.83;;
55009;SDS011;40903;51.638;7.528;2023-07-20T08:40:41;1.00;;;0.70;;
55009;SDS011;40903;51.638;7.528;2023-07-20T08:43:08;2.00;;;0.90;;
55009;SDS011;40903;51.638;7.528;2023-07-20T08:45:38;1.37;;;0.90;;
55009;SDS011;40903;51.638;7.528;2023-07-20T08:48:07;0.80;;;0.80;;
55009;SDS011;40903;51.638;7.528;2023-07-20T08:50:34;1.13;;;0.90;;
55009;SDS011;40903;51.638;7.528;2023-07-20T08:53:00;0.97;;;0.87;;
55009;SDS011;40903;51.638;7.528;2023-07-20T08:55:26;1.43;;;0.87;;
55009;SDS011;40903;51.638;7.528;2023-07-20T08:57:53;0.90;;;0.80;;
55009;SDS011;40903;51.638;7.528;2023-07-20T09:00:21;3.50;;;0.93;;
55009;SDS011;40903;51.638;7.528;2023-07-20T09:02:49;1.47;;;0.73;;
55009;SDS011;40903;51.638;7.528;2023-07-20T09:05:16;1.30;;;0.70;;
55009;SDS011;40903;51.638;7.528;2023-07-20T09:07:42;0.80;;;0.80;;
55009;SDS011;40903;51.638;7.528;2023-07-20T09:10:08;0.80;;;0.80;;
55009;SDS011;40903;51.638;7.528;2023-07-20T09:12:35;1.07;;;1.00;;
55009;SDS011;40903;51.638;7.528;2023-07-20T09:15:00;1.00;;;0.90;;
55009;SDS011;40903;51.638;7.528;2023-07-20T09:17:26;4.03;;;0.90;;
55009;SDS011;40903;51.638;7.528;2023-07-20T09:19:52;1.50;;;1.00;;
55009;SDS011;40903;51.638;7.528;2023-07-20T09:22:20;1.77;;;1.00;;
55009;SDS011;40903;51.638;7.528;2023-07-20T09:24:46;0.80;;;0.80;;
55009;SDS011;40903;51.638;7.528;2023-07-20T09:27:12;0.70;;;0.70;;
55009;SDS011;40903;51.638;7.528;2023-07-20T09:29:52;0.70;;;0.70;;
55009;SDS011;40903;51.638;7.528;2023-07-20T09:32:19;0.70;;;0.60;;
55009;SDS011;40903;51.638;7.528;2023-07-20T09:34:45;1.17;;;0.77;;
55009;SDS011;40903;51.638;7.528;2023-07-20T09:37:11;0.90;;;0.80;;
55009;SDS011;40903;51.638;7.528;2023-07-20T09:39:43;1.00;;;0.90;;
55009;SDS011;40903;51.638;7.528;2023-07-20T09:42:11;1.43;;;0.80;;
55009;SDS011;40903;51.638;7.528;2023-07-20T09:44:38;1.20;;;0.70;;
55009;SDS011;40903;51.638;7.528;2023-07-20T09:47:05;1.97;;;0.80;;
55009;SDS011;40903;51.638;7.528;2023-07-20T09:49:30;0.73;;;0.70;;
55009;SDS011;40903;51.638;7.528;2023-07-20T09:51:57;1.00;;;0.57;;
55009;SDS011;40903;51.638;7.528;2023-07-20T09:54:23;0.80;;;0.80;;
55009;SDS011;40903;51.638;7.528;2023-07-20T09:56:51;1.33;;;0.70;;
55009;SDS011;40903;51.638;7.528;2023-07-20T09:59:17;0.70;;;0.70;;
55009;SDS011;40903;51.638;7.528;2023-07-20T10:01:43;1.60;;;0.60;;
55009;SDS011;40903;51.638;7.528;2023-07-20T10:04:11;0.60;;;0.60;;
55009;SDS011;40903;51.638;7.528;2023-07-20T10:06:39;0.60;;;0.60;;
55009;SDS011;40903;51.638;7.528;2023-07-20T10:09:07;2.00;;;0.77;;
55009;SDS011;40903;51.638;7.528;2023-07-20T10:11:35;1.40;;;0.90;;
55009;SDS011;40903;51.638;7.528;2023-07-20T10:14:04;1.20;;;0.90;;
55009;SDS011;40903;51.638;7.528;2023-07-20T10:16:36;4.00;;;0.70;;
55009;SDS011;40903;51.638;7.528;2023-07-20T10:19:07;2.40;;;0.70;;
55009;SDS011;40903;51.638;7.528;2023-07-20T10:21:40;4.67;;;1.00;;
55009;SDS011;40903;51.638;7.528;2023-07-20T10:24:12;1.70;;;0.67;;
55009;SDS011;40903;51.638;7.528;2023-07-20T10:26:39;1.13;;;0.60;;
55009;SDS011;40903;51.638;7.528;2023-07-20T10:29:05;2.50;;;0.70;;
55009;SDS011;40903;51.638;7.528;2023-07-20T10:31:31;0.77;;;0.70;;
55009;SDS011;40903;51.638;7.528;2023-07-20T10:33:58;0.60;;;0.60;;
55009;SDS011;40903;51.638;7.528;2023-07-20T10:36:25;0.80;;;0.60;;
55009;SDS011;40903;51.638;7.528;2023-07-20T10:38:55;1.13;;;0.70;;
55009;SDS011;40903;51.638;7.528;2023-07-20T10:41:23;0.97;;;0.87;;
55009;SDS011;40903;51.638;7.528;2023-07-20T10:46:51;1.40;;;0.80;;
55009;SDS011;40903;51.638;7.528;2023-07-20T10:49:25;0.80;;;0.63;;
55009;SDS011;40903;51.638;7.528;2023-07-20T10:51:58;1.53;;;0.60;;
55009;SDS011;40903;51.638;7.528;2023-07-20T10:56:52;0.83;;;0.80;;
55009;SDS011;40903;51.638;7.528;2023-07-20T11:01:50;0.80;;;0.67;;
55009;SDS011;40903;51.638;7.528;2023-07-20T11:04:21;0.80;;;0.70;;
55009;SDS011;40903;51.638;7.528;2023-07-20T11:07:02;1.07;;;0.77;;
55009;SDS011;40903;51.638;7.528;2023-07-20T11:09:32;1.20;;;0.70;;
55009;SDS011;40903;51.638;7.528;2023-07-20T11:17:14;1.17;;;0.70;;
55009;SDS011;40903;51.638;7.528;2023-07-20T11:19:45;2.37;;;0.70;;
55009;SDS011;40903;51.638;7.528;2023-07-20T11:22:13;1.33;;;0.70;;
55009;SDS011;40903;51.638;7.528;2023-07-20T11:24:42;6.17;;;1.30;;
55009;SDS011;40903;51.638;7.528;2023-07-20T11:27:08;0.60;;;0.60;;
55009;SDS011;40903;51.638;7.528;2023-07-20T11:29:34;0.60;;;0.60;;
55009;SDS011;40903;51.638;7.528;2023-07-20T11:32:04;1.20;;;0.80;;
55009;SDS011;40903;51.638;7.528;2023-07-20T11:34:30;1.17;;;0.80;;
55009;SDS011;40903;51.638;7.528;2023-07-20T11:36:56;0.70;;;0.70;;
55009;SDS011;40903;51.638;7.528;2023-07-20T11:39:23;0.70;;;0.60;;
55009;SDS011;40903;51.638;7.528;2023-07-20T11:41:51;0.80;;;0.70;;
55009;SDS011;40903;51.638;7.528;2023-07-20T11:44:18;1.50;;;0.70;;
55009;SDS011;40903;51.638;7.528;2023-07-20T11:46:48;0.60;;;0.60;;
55009;SDS011;40903;51.638;7.528;2023-07-20T11:49:14;1.23;;;0.83;;
55009;SDS011;40903;51.638;7.528;2023-07-20T11:51:40;0.50;;;0.50;;
55009;SDS011;40903;51.638;7.528;2023-07-20T11:54:07;0.70;;;0.60;;
55009;SDS011;40903;51.638;7.528;2023-07-20T11:56:33;0.63;;;0.60;;
55009;SDS011;40903;51.638;7.528;2023-07-20T11:58:59;1.73;;;0.70;;
55009;SDS011;40903;51.638;7.528;2023-07-20T12:01:27;2.80;;;0.80;;
55009;SDS011;40903;51.638;7.528;2023-07-20T12:03:57;3.30;;;2.27;;
55009;SDS011;40903;51.638;7.528;2023-07-20T12:06:24;1.77;;;0.83;;
55009;SDS011;40903;51.638;7.528;2023-07-20T12:08:54;1.10;;;0.90;;
55009;SDS011;40903;51.638;7.528;2023-07-20T12:11:36;1.03;;;0.93;;
55009;SDS011;40903;51.638;7.528;2023-07-20T12:14:03;0.97;;;0.93;;
55009;SDS011;40903;51.638;7.528;2023-07-20T12:16:33;2.10;;;1.00;;
55009;SDS011;40903;51.638;7.528;2023-07-20T12:19:00;0.73;;;0.63;;
55009;SDS011;40903;51.638;7.528;2023-07-20T12:21:27;0.77;;;0.70;;
55009;SDS011;40903;51.638;7.528;2023-07-20T12:23:52;0.60;;;0.60;;
55009;SDS011;40903;51.638;7.528;2023-07-20T12:26:18;0.57;;;0.57;;
55009;SDS011;40903;51.638;7.528;2023-07-20T12:28:49;1.43;;;0.93;;
55009;SDS011;40903;51.638;7.528;2023-07-20T12:31:14;1.30;;;0.87;;
55009;SDS011;40903;51.638;7.528;2023-07-20T12:33:40;0.73;;;0.70;;
55009;SDS011;40903;51.638;7.528;2023-07-20T12:36:06;0.80;;;0.70;;
55009;SDS011;40903;51.638;7.528;2023-07-20T12:38:31;1.73;;;0.73;;
55009;SDS011;40903;51.638;7.528;2023-07-20T12:40:57;0.70;;;0.70;;
55009;SDS011;40903;51.638;7.528;2023-07-20T12:43:23;0.67;;;0.67;;
55009;SDS011;40903;51.638;7.528;2023-07-20T12:45:49;2.07;;;0.60;;
55009;SDS011;40903;51.638;7.528;2023-07-20T12:48:15;1.13;;;0.70;;
55009;SDS011;40903;51.638;7.528;2023-07-20T12:50:40;0.90;;;0.60;;
55009;SDS011;40903;51.638;7.528;2023-07-20T12:53:06;2.20;;;0.60;;
55009;SDS011;40903;51.638;7.528;2023-07-20T12:55:32;1.10;;;0.73;;
55009;SDS011;40903;51.638;7.528;2023-07-20T12:57:57;1.73;;;0.80;;
55009;SDS011;40903;51.638;7.528;2023-07-20T13:00:23;1.77;;;0.70;;
55009;SDS011;40903;51.638;7.528;2023-07-20T13:02:51;0.60;;;0.60;;
55009;SDS011;40903;51.638;7.528;2023-07-20T13:05:17;1.20;;;0.70;;
55009;SDS011;40903;51.638;7.528;2023-07-20T13:07:43;1.17;;;0.80;;
55009;SDS011;40903;51.638;7.528;2023-07-20T13:10:12;1.83;;;0.80;;
55009;SDS011;40903;51.638;7.528;2023-07-20T13:12:37;1.03;;;0.60;;
55009;SDS011;40903;51.638;7.528;2023-07-20T13:15:07;0.50;;;0.50;;
55009;SDS011;40903;51.638;7.528;2023-07-20T13:17:36;1.50;;;0.67;;
55009;SDS011;40903;51.638;7.528;2023-07-20T13:20:04;0.40;;;0.40;;
55009;SDS011;40903;51.638;7.528;2023-07-20T13:22:31;1.07;;;0.70;;
55009;SDS011;40903;51.638;7.528;2023-07-20T13:24:56;0.93;;;0.60;;
55009;SDS011;40903;51.638;7.528;2023-07-20T13:27:25;0.77;;;0.50;;
55009;SDS011;40903;51.638;7.528;2023-07-20T13:29:53;1.70;;;0.60;;
55009;SDS011;40903;51.638;7.528;2023-07-20T13:32:18;0.83;;;0.83;;
55009;SDS011;40903;51.638;7.528;2023-07-20T13:34:44;0.60;;;0.60;;
55009;SDS011;40903;51.638;7.528;2023-07-20T13:37:11;0.60;;;0.60;;
55009;SDS011;40903;51.638;7.528;2023-07-20T13:39:37;1.87;;;0.70;;
55009;SDS011;40903;51.638;7.528;2023-07-20T13:42:03;0.60;;;0.60;;
55009;SDS011;40903;51.638;7.528;2023-07-20T13:44:32;0.80;;;0.57;;
55009;SDS011;40903;51.638;7.528;2023-07-20T13:46:58;1.10;;;0.60;;
55009;SDS011;40903;51.638;7.528;2023-07-20T13:49:23;0.50;;;0.50;;
55009;SDS011;40903;51.638;7.528;2023-07-20T13:51:49;1.13;;;1.00;;
55009;SDS011;40903;51.638;7.528;2023-07-20T13:54:14;1.60;;;1.23;;
55009;SDS011;40903;51.638;7.528;2023-07-20T13:56:40;0.60;;;0.60;;
55009;SDS011;40903;51.638;7.528;2023-07-20T13:59:05;1.60;;;0.77;;
55009;SDS011;40903;51.638;7.528;2023-07-20T14:01:31;0.60;;;0.47;;
55009;SDS011;40903;51.638;7.528;2023-07-20T14:03:59;4.27;;;0.93;;
55009;SDS011;40903;51.638;7.528;2023-07-20T14:06:25;1.00;;;0.60;;
55009;SDS011;40903;51.638;7.528;2023-07-20T14:08:51;0.70;;;0.70;;
55009;SDS011;40903;51.638;7.528;2023-07-20T14:11:18;0.63;;;0.60;;
55009;SDS011;40903;51.638;7.528;2023-07-20T14:13:44;0.90;;;0.80;;
55009;SDS011;40903;51.638;7.528;2023-07-20T14:16:09;0.50;;;0.50;;
55009;SDS011;40903;51.638;7.528;2023-07-20T14:18:36;1.87;;;0.83;;
55009;SDS011;40903;51.638;7.528;2023-07-20T14:21:01;2.33;;;0.70;;
55009;SDS011;40903;51.638;7.528;2023-07-20T14:23:28;2.37;;;0.90;;
55009;SDS011;40903;51.638;7.528;2023-07-20T14:25:54;2.00;;;0.80;;
55009;SDS011;40903;51.638;7.528;2023-07-20T14:28:19;1.43;;;0.80;;
55009;SDS011;40903;51.638;7.528;2023-07-20T14:30:45;0.90;;;0.70;;
55009;SDS011;40903;51.638;7.528;2023-07-20T14:33:11;0.70;;;0.70;;
55009;SDS011;40903;51.638;7.528;2023-07-20T14:35:36;1.70;;;0.80;;
55009;SDS011;40903;51.638;7.528;2023-07-20T14:38:02;0.60;;;0.60;;
55009;SDS011;40903;51.638;7.528;2023-07-20T14:40:28;1.40;;;0.60;;
55009;SDS011;40903;51.638;7.528;2023-07-20T14:42:54;0.60;;;0.60;;
55009;SDS011;40903;51.638;7.528;2023-07-20T14:45:20;0.63;;;0.60;;
55009;SDS011;40903;51.638;7.528;2023-07-20T14:47:46;2.07;;;1.23;;
55009;SDS011;40903;51.638;7.528;2023-07-20T14:50:18;0.90;;;0.90;;
55009;SDS011;40903;51.638;7.528;2023-07-20T14:52:44;0.70;;;0.70;;
55009;SDS011;40903;51.638;7.528;2023-07-20T14:55:09;0.70;;;0.70;;
55009;SDS011;40903;51.638;7.528;2023-07-20T14:57:34;0.90;;;0.90;;
55009;SDS011;40903;51.638;7.528;2023-07-20T15:00:00;1.47;;;0.70;;